createdAt,value
2018-11-25T00:00:13.143Z,5.59
2018-11-25T00:02:41.338Z,5.51
2018-11-25T00:05:10.537Z,5.65
2018-11-25T00:07:38.676Z,5.78
2018-11-25T00:10:07.539Z,5.93
2018-11-25T00:12:35.880Z,5.92
2018-11-25T00:15:04.169Z,5.98
2018-11-25T00:17:32.311Z,6.06
2018-11-25T00:20:00.492Z,6.11
2018-11-25T00:22:28.642Z,6.20
2018-11-25T00:24:56.779Z,6.33
2018-11-25T00:27:24.910Z,6.27
2018-11-25T00:29:53.059Z,5.91
2018-11-25T00:32:21.246Z,5.94
2018-11-25T00:34:50.177Z,6.15
2018-11-25T00:37:18.309Z,6.20
2018-11-25T00:39:46.487Z,6.38
2018-11-25T00:42:14.714Z,6.37
2018-11-25T00:44:42.929Z,6.32
2018-11-25T00:47:11.106Z,6.35
2018-11-25T00:49:39.294Z,6.31
2018-11-25T00:52:07.516Z,6.33
2018-11-25T00:54:35.619Z,6.40
2018-11-25T00:57:03.841Z,6.41
2018-11-25T00:59:31.969Z,6.38
2018-11-25T01:02:00.269Z,6.39
2018-11-25T01:04:28.435Z,6.30
2018-11-25T01:06:56.588Z,6.33
2018-11-25T01:09:24.770Z,6.33
2018-11-25T01:11:52.962Z,6.31
2018-11-25T01:14:21.120Z,6.32
2018-11-25T01:16:49.284Z,6.38
2018-11-25T01:19:17.443Z,6.32
2018-11-25T01:21:45.653Z,6.21
2018-11-25T01:24:13.790Z,6.30
2018-11-25T01:26:42.076Z,6.29
2018-11-25T01:29:10.270Z,6.28
2018-11-25T01:31:38.431Z,6.30
2018-11-25T01:34:06.929Z,6.36
2018-11-25T01:36:35.063Z,6.32
2018-11-25T01:39:03.202Z,6.16
2018-11-25T01:41:31.445Z,6.01
2018-11-25T01:43:59.575Z,5.94
2018-11-25T01:46:27.785Z,5.67
2018-11-25T01:48:55.903Z,5.57
2018-11-25T01:51:24.200Z,5.47
2018-11-25T01:53:52.421Z,5.48
2018-11-25T01:56:20.577Z,5.52
2018-11-25T01:58:48.705Z,5.74
2018-11-25T02:01:16.929Z,5.79
2018-11-25T02:03:45.091Z,5.90
2018-11-25T02:06:13.269Z,6.01
2018-11-25T02:08:41.456Z,6.01
2018-11-25T02:11:09.618Z,5.97
2018-11-25T02:13:37.747Z,5.99
2018-11-25T02:16:05.991Z,5.95
2018-11-25T02:18:34.127Z,5.80
2018-11-25T02:21:02.424Z,5.60
2018-11-25T02:23:30.592Z,5.51
2018-11-25T02:25:58.870Z,5.48
2018-11-25T02:28:27.039Z,5.47
2018-11-25T02:30:55.216Z,5.49
2018-11-25T02:33:23.477Z,5.59
2018-11-25T02:35:51.652Z,5.64
2018-11-25T02:38:19.851Z,5.64
2018-11-25T02:40:47.982Z,5.69
2018-11-25T02:43:16.114Z,5.85
2018-11-25T02:45:44.259Z,5.83
2018-11-25T02:48:12.463Z,5.82
2018-11-25T02:50:40.588Z,5.87
2018-11-25T02:53:08.908Z,5.87
2018-11-25T02:55:38.222Z,5.74
2018-11-25T02:58:06.394Z,5.62
2018-11-25T03:00:34.551Z,5.56
2018-11-25T03:03:02.702Z,5.53
2018-11-25T03:05:30.879Z,5.52
2018-11-25T03:07:59.043Z,5.48
2018-11-25T03:10:27.265Z,5.32
2018-11-25T03:12:55.418Z,5.30
2018-11-25T03:15:23.569Z,5.30
2018-11-25T03:17:51.708Z,5.35
2018-11-25T03:20:19.848Z,5.29
2018-11-25T03:22:47.987Z,5.14
2018-11-25T03:25:18.087Z,5.11
2018-11-25T03:27:46.384Z,5.13
2018-11-25T03:30:17.509Z,5.10
2018-11-25T03:32:46.530Z,5.07
2018-11-25T03:35:15.714Z,5.06
2018-11-25T03:37:43.887Z,4.99
2018-11-25T03:40:15.974Z,4.90
2018-11-25T03:42:44.110Z,4.80
2018-11-25T03:45:18.135Z,4.74
2018-11-25T03:47:46.314Z,4.68
2018-11-25T03:50:15.113Z,4.58
2018-11-25T03:52:43.279Z,4.47
2018-11-25T03:55:13.074Z,4.27
2018-11-25T03:57:42.395Z,4.21
2018-11-25T04:00:15.552Z,4.11
2018-11-25T04:02:43.742Z,3.99
2018-11-25T04:05:13.174Z,4.07
2018-11-25T04:07:41.316Z,4.25
2018-11-25T04:10:11.611Z,4.23
2018-11-25T04:12:39.814Z,4.31
2018-11-25T04:15:10.127Z,4.30
2018-11-25T04:17:38.274Z,4.22
2018-11-25T04:20:08.422Z,4.30
2018-11-25T04:22:37.093Z,4.29
2018-11-25T04:25:06.898Z,4.25
2018-11-25T04:27:35.055Z,4.21
2018-11-25T04:30:03.584Z,4.21
2018-11-25T04:32:31.726Z,4.11
2018-11-25T04:35:00.044Z,4.00
2018-11-25T04:37:28.194Z,3.97
2018-11-25T04:39:56.366Z,4.04
2018-11-25T04:42:25.011Z,4.05
2018-11-25T04:44:53.230Z,4.04
2018-11-25T04:47:21.386Z,4.04
2018-11-25T04:49:49.548Z,4.02
2018-11-25T04:52:17.737Z,3.92
2018-11-25T04:54:45.925Z,3.91
2018-11-25T04:57:14.110Z,3.75
2018-11-25T04:59:42.259Z,3.71
2018-11-25T05:02:10.499Z,3.72
2018-11-25T05:04:38.645Z,3.67
2018-11-25T05:07:07.295Z,3.67
2018-11-25T05:09:35.459Z,3.67
2018-11-25T05:12:03.654Z,3.66
2018-11-25T05:14:31.815Z,3.72
2018-11-25T05:16:59.964Z,3.80
2018-11-25T05:19:28.115Z,3.70
2018-11-25T05:21:56.336Z,3.68
2018-11-25T05:24:24.531Z,3.67
2018-11-25T05:26:52.676Z,3.64
2018-11-25T05:29:24.399Z,3.61
2018-11-25T05:31:52.527Z,3.64
2018-11-25T05:34:20.791Z,3.64
2018-11-25T05:36:48.974Z,3.64
2018-11-25T05:39:17.128Z,3.71
2018-11-25T05:41:45.318Z,3.79
2018-11-25T05:44:13.548Z,3.78
2018-11-25T05:46:41.745Z,3.74
2018-11-25T05:49:09.883Z,3.76
2018-11-25T05:51:38.072Z,3.78
2018-11-25T05:54:06.275Z,3.80
2018-11-25T05:56:34.448Z,3.78
2018-11-25T05:59:02.639Z,3.80
2018-11-25T06:01:30.941Z,3.82
2018-11-25T06:03:59.121Z,3.78
2018-11-25T06:06:27.345Z,3.80
2018-11-25T06:08:55.482Z,3.77
2018-11-25T06:11:24.100Z,3.83
2018-11-25T06:13:52.239Z,3.90
2018-11-25T06:16:20.442Z,3.84
2018-11-25T06:18:48.674Z,3.82
2018-11-25T06:21:16.894Z,3.81
2018-11-25T06:23:45.086Z,3.89
2018-11-25T06:26:13.446Z,3.86
2018-11-25T06:28:41.744Z,3.86
2018-11-25T06:31:10.474Z,3.85
2018-11-25T06:33:38.643Z,3.80
2018-11-25T06:36:06.909Z,3.82
2018-11-25T06:38:35.098Z,3.86
2018-11-25T06:41:03.392Z,3.87
2018-11-25T06:43:31.522Z,3.94
2018-11-25T06:45:59.667Z,3.95
2018-11-25T06:48:28.386Z,3.87
2018-11-25T06:50:56.601Z,3.91
2018-11-25T06:53:24.867Z,3.88
2018-11-25T06:55:53.398Z,3.86
2018-11-25T06:58:22.130Z,3.83
2018-11-25T07:00:50.333Z,3.89
2018-11-25T07:03:18.714Z,3.92
2018-11-25T07:05:47.918Z,3.90
2018-11-25T07:08:16.083Z,3.88
2018-11-25T07:10:44.294Z,3.88
2018-11-25T07:13:12.440Z,3.82
2018-11-25T07:15:40.785Z,3.74
2018-11-25T07:18:08.986Z,3.70
2018-11-25T07:20:37.192Z,3.80
2018-11-25T07:23:05.479Z,3.89
2018-11-25T07:25:33.702Z,3.83
2018-11-25T07:28:17.624Z,3.77
2018-11-25T07:30:30.172Z,3.69
2018-11-25T07:32:58.338Z,3.70
2018-11-25T07:35:27.415Z,3.75
2018-11-25T07:37:55.608Z,3.73
2018-11-25T07:40:24.453Z,3.77
2018-11-25T07:42:53.335Z,3.80
2018-11-25T07:45:29.723Z,3.89
2018-11-25T07:47:50.795Z,3.84
2018-11-25T07:50:18.951Z,3.86
2018-11-25T07:52:47.908Z,3.82
2018-11-25T07:55:20.196Z,3.83
2018-11-25T07:57:48.978Z,3.89
2018-11-25T08:00:21.111Z,3.95
2018-11-25T08:02:49.987Z,3.93
2018-11-25T08:05:19.331Z,3.98
2018-11-25T08:07:47.459Z,4.00
2018-11-25T08:10:16.140Z,3.92
2018-11-25T08:12:44.773Z,3.96
2018-11-25T08:15:13.873Z,3.99
2018-11-25T08:17:42.058Z,4.01
2018-11-25T08:20:11.450Z,4.03
2018-11-25T08:22:39.580Z,3.99
2018-11-25T08:25:09.954Z,4.01
2018-11-25T08:27:38.178Z,3.99
2018-11-25T08:30:09.533Z,4.01
2018-11-25T08:32:38.109Z,4.05
2018-11-25T08:35:06.903Z,3.99
2018-11-25T08:37:35.113Z,3.92
2018-11-25T08:40:03.476Z,3.89
2018-11-25T08:42:31.740Z,3.99
2018-11-25T08:45:03.086Z,4.02
2018-11-25T08:47:31.208Z,4.04
2018-11-25T08:49:59.351Z,4.15
2018-11-25T08:52:27.531Z,4.10
2018-11-25T08:54:55.666Z,4.04
2018-11-25T08:57:25.016Z,4.11
2018-11-25T08:59:52.171Z,4.10
2018-11-25T09:02:20.291Z,4.19
2018-11-25T09:04:48.692Z,4.25
2018-11-25T09:07:16.921Z,4.25
2018-11-25T09:09:45.069Z,4.20
2018-11-25T09:12:13.223Z,4.21
2018-11-25T09:14:41.764Z,4.35
2018-11-25T09:17:10.010Z,4.39
2018-11-25T09:19:38.143Z,4.42
2018-11-25T09:22:06.787Z,4.44
2018-11-25T09:24:34.999Z,4.38
2018-11-25T09:27:03.127Z,4.42
2018-11-25T09:29:32.347Z,4.38
2018-11-25T09:32:00.536Z,4.50
2018-11-25T09:34:28.728Z,4.53
2018-11-25T09:36:56.900Z,4.38
2018-11-25T09:39:25.160Z,4.43
2018-11-25T09:41:53.343Z,4.46
2018-11-25T09:44:21.719Z,4.57
2018-11-25T09:46:49.902Z,4.58
2018-11-25T09:49:18.075Z,4.51
2018-11-25T09:51:46.240Z,4.53
2018-11-25T09:54:14.370Z,4.50
2018-11-25T09:56:42.512Z,4.55
2018-11-25T09:59:10.665Z,4.53
2018-11-25T10:01:38.832Z,4.60
2018-11-25T10:04:07.795Z,4.53
2018-11-25T10:06:35.989Z,4.53
2018-11-25T10:09:05.083Z,4.57
2018-11-25T10:11:33.222Z,4.55
2018-11-25T10:14:01.341Z,4.58
2018-11-25T10:16:29.476Z,4.64
2018-11-25T10:18:57.702Z,4.68
2018-11-25T10:21:25.835Z,4.82
2018-11-25T10:23:54.026Z,4.81
2018-11-25T10:26:22.183Z,4.98
2018-11-25T10:28:50.385Z,5.08
2018-11-25T10:31:18.586Z,5.12
2018-11-25T10:33:46.731Z,5.22
2018-11-25T10:36:14.866Z,5.31
2018-11-25T10:38:43.092Z,5.37
2018-11-25T10:41:11.354Z,5.33
2018-11-25T10:43:39.496Z,5.20
2018-11-25T10:46:07.649Z,5.28
2018-11-25T10:48:35.775Z,5.15
2018-11-25T10:51:03.938Z,5.25
2018-11-25T10:53:32.072Z,5.24
2018-11-25T10:56:00.290Z,5.36
2018-11-25T10:58:28.792Z,5.25
2018-11-25T11:01:01.097Z,5.31
2018-11-25T11:03:34.670Z,5.33
2018-11-25T11:06:08.237Z,5.48
2018-11-25T11:08:36.378Z,5.61
2018-11-25T11:11:05.044Z,5.56
2018-11-25T11:13:33.166Z,5.58
2018-11-25T11:16:01.645Z,5.56
2018-11-25T11:18:29.774Z,5.73
2018-11-25T11:20:58.003Z,5.87
2018-11-25T11:23:26.130Z,5.89
2018-11-25T11:25:54.304Z,5.89
2018-11-25T11:28:22.446Z,5.93
2018-11-25T11:30:50.629Z,6.10
2018-11-25T11:33:18.769Z,6.11
2018-11-25T11:35:46.972Z,6.02
2018-11-25T11:38:15.201Z,5.99
2018-11-25T11:40:43.333Z,6.02
2018-11-25T11:43:11.681Z,5.94
2018-11-25T11:45:39.829Z,5.94
2018-11-25T11:48:07.957Z,6.03
2018-11-25T11:50:36.159Z,6.21
2018-11-25T11:53:04.545Z,6.32
2018-11-25T11:55:32.665Z,6.29
2018-11-25T11:58:00.842Z,6.37
2018-11-25T12:00:30.376Z,6.32
2018-11-25T12:02:58.770Z,6.50
2018-11-25T12:05:27.426Z,6.52
2018-11-25T12:07:55.706Z,6.52
2018-11-25T12:10:23.828Z,6.47
2018-11-25T12:12:52.064Z,6.58
2018-11-25T12:15:30.217Z,6.75
2018-11-25T12:17:51.711Z,6.83
2018-11-25T12:20:21.388Z,6.82
2018-11-25T12:22:49.083Z,6.73
2018-11-25T12:25:17.665Z,6.84
2018-11-25T12:27:45.886Z,6.78
2018-11-25T12:30:15.017Z,6.94
2018-11-25T12:32:44.218Z,7.10
2018-11-25T12:35:13.385Z,7.33
2018-11-25T12:37:41.516Z,7.73
2018-11-25T12:40:18.669Z,7.91
2018-11-25T12:42:49.005Z,8.10
2018-11-25T12:45:17.777Z,8.28
2018-11-25T12:47:46.030Z,8.40
2018-11-25T12:50:19.237Z,8.39
2018-11-25T12:52:47.374Z,8.41
2018-11-25T12:55:16.646Z,8.47
2018-11-25T12:57:44.775Z,8.40
2018-11-25T13:00:32.328Z,8.31
2018-11-25T13:03:00.883Z,8.51
2018-11-25T13:05:29.126Z,8.53
2018-11-25T13:07:57.681Z,8.52
2018-11-25T13:10:25.882Z,8.46
2018-11-25T13:12:54.018Z,8.24
2018-11-25T13:15:22.144Z,8.06
2018-11-25T13:17:50.636Z,8.14
2018-11-25T13:20:18.850Z,8.19
2018-11-25T13:22:47.074Z,8.22
2018-11-25T13:25:16.606Z,8.19
2018-11-25T13:27:44.744Z,8.23
2018-11-25T13:30:22.796Z,8.06
2018-11-25T13:32:52.216Z,8.10
2018-11-25T13:35:20.499Z,8.11
2018-11-25T13:37:48.653Z,8.11
2018-11-25T13:40:17.239Z,8.18
2018-11-25T13:42:45.412Z,8.23
2018-11-25T13:45:13.599Z,8.28
2018-11-25T13:47:41.752Z,8.26
2018-11-25T13:50:10.962Z,8.29
2018-11-25T13:52:39.158Z,8.21
2018-11-25T13:55:10.762Z,8.19
2018-11-25T13:57:38.971Z,8.17
2018-11-25T14:01:15.573Z,8.20
2018-11-25T14:03:43.705Z,8.05
2018-11-25T14:06:13.628Z,7.97
2018-11-25T14:08:42.645Z,7.98
2018-11-25T14:11:13.038Z,8.00
2018-11-25T14:13:41.216Z,8.03
2018-11-25T14:16:11.256Z,8.02
2018-11-25T14:18:39.396Z,8.00
2018-11-25T14:21:07.630Z,8.01
2018-11-25T14:23:35.786Z,8.11
2018-11-25T14:26:11.719Z,8.09
2018-11-25T14:28:39.867Z,8.10
2018-11-25T14:31:08.130Z,8.10
2018-11-25T14:33:36.359Z,8.11
2018-11-25T14:36:04.985Z,8.08
2018-11-25T14:38:33.197Z,8.00
2018-11-25T14:41:01.487Z,7.96
2018-11-25T14:43:29.715Z,7.84
2018-11-25T14:45:57.925Z,7.84
2018-11-25T14:48:26.043Z,7.87
2018-11-25T14:50:54.214Z,7.91
2018-11-25T14:53:22.386Z,8.00
2018-11-25T14:55:50.504Z,7.95
2018-11-25T14:58:18.709Z,7.93
2018-11-25T15:00:47.170Z,7.93
2018-11-25T15:03:15.373Z,7.96
2018-11-25T15:05:45.185Z,8.00
2018-11-25T15:08:15.984Z,8.03
2018-11-25T15:10:44.142Z,8.00
2018-11-25T15:13:12.713Z,7.96
2018-11-25T15:15:40.910Z,7.91
2018-11-25T15:18:09.701Z,7.85
2018-11-25T15:20:38.030Z,7.64
2018-11-25T15:23:10.557Z,7.63
2018-11-25T15:25:45.068Z,7.63
2018-11-25T15:28:14.018Z,7.53
2018-11-25T15:30:42.238Z,7.40
2018-11-25T15:33:11.557Z,7.35
2018-11-25T15:35:39.866Z,7.24
2018-11-25T15:38:08.460Z,7.29
2018-11-25T15:40:37.402Z,7.35
2018-11-25T15:43:06.897Z,7.36
2018-11-25T15:45:35.171Z,7.38
2018-11-25T15:48:16.864Z,7.35
2018-11-25T15:50:45.239Z,7.31
2018-11-25T15:53:13.610Z,7.14
2018-11-25T15:55:43.043Z,6.97
2018-11-25T15:58:11.234Z,6.86
2018-11-25T16:00:39.491Z,6.88
2018-11-25T16:03:10.053Z,6.82
2018-11-25T16:05:40.172Z,6.82
2018-11-25T16:08:08.403Z,6.83
2018-11-25T16:10:37.350Z,6.78
2018-11-25T16:13:06.563Z,6.81
2018-11-25T16:15:35.516Z,6.80
2018-11-25T16:18:03.802Z,6.73
2018-11-25T16:20:32.152Z,6.68
2018-11-25T16:23:02.707Z,6.65
2018-11-25T16:26:04.339Z,6.64
2018-11-25T16:28:34.854Z,6.63
2018-11-25T16:31:03.011Z,6.64
2018-11-25T16:33:31.246Z,6.65
2018-11-25T16:35:59.571Z,6.63
2018-11-25T16:38:27.820Z,6.59
2018-11-25T16:40:56.476Z,6.56
2018-11-25T16:43:24.811Z,6.57
2018-11-25T16:45:53.649Z,6.51
2018-11-25T16:48:21.886Z,6.51
2018-11-25T16:50:50.073Z,6.52
2018-11-25T16:53:19.643Z,6.62
2018-11-25T16:55:47.897Z,6.57
2018-11-25T16:58:16.094Z,6.51
2018-11-25T17:00:44.403Z,6.47
2018-11-25T17:03:12.566Z,6.43
2018-11-25T17:05:43.725Z,6.43
2018-11-25T17:08:45.941Z,6.40
2018-11-25T17:11:14.238Z,6.39
2018-11-25T17:13:42.426Z,6.39
2018-11-25T17:16:12.234Z,6.40
2018-11-25T17:18:40.401Z,6.42
2018-11-25T17:21:08.673Z,6.43
2018-11-25T17:23:37.010Z,6.43
2018-11-25T17:26:05.488Z,6.37
2018-11-25T17:28:33.711Z,6.40
2018-11-25T17:31:01.919Z,6.45
2018-11-25T17:33:30.420Z,6.45
2018-11-25T17:35:58.774Z,6.44
2018-11-25T17:38:27.103Z,6.38
2018-11-25T17:40:55.516Z,6.39
2018-11-25T17:43:24.750Z,6.44
2018-11-25T17:45:52.965Z,6.38
2018-11-25T17:48:21.547Z,6.42
2018-11-25T17:50:49.787Z,6.43
2018-11-25T17:53:20.782Z,6.45
2018-11-25T17:55:46.174Z,6.45
2018-11-25T17:58:14.625Z,6.43
2018-11-25T18:00:46.492Z,6.42
2018-11-25T18:03:17.544Z,6.42
2018-11-25T18:05:45.721Z,6.40
2018-11-25T18:08:13.961Z,6.52
2018-11-25T18:10:42.954Z,6.44
2018-11-25T18:13:11.163Z,6.41
2018-11-25T18:15:39.333Z,6.41
2018-11-25T18:18:17.069Z,6.41
2018-11-25T18:20:50.699Z,6.42
2018-11-25T18:23:18.877Z,6.41
2018-11-25T18:25:47.185Z,6.40
2018-11-25T18:28:15.326Z,6.40
2018-11-25T18:30:44.725Z,6.43
2018-11-25T18:33:12.930Z,6.36
2018-11-25T18:35:41.304Z,6.38
2018-11-25T18:38:09.528Z,6.37
2018-11-25T18:40:37.818Z,6.43
2018-11-25T18:43:06.838Z,6.40
2018-11-25T18:45:35.156Z,6.45
2018-11-25T18:48:03.409Z,6.38
2018-11-25T18:50:31.587Z,6.36
2018-11-25T18:52:59.748Z,6.38
2018-11-25T18:55:26.847Z,6.38
2018-11-25T18:57:54.973Z,6.38
2018-11-25T19:00:27.357Z,6.40
2018-11-25T19:02:55.522Z,6.37
2018-11-25T19:05:24.130Z,6.37
2018-11-25T19:07:52.340Z,6.38
2018-11-25T19:10:20.545Z,6.43
2018-11-25T19:12:48.718Z,6.35
2018-11-25T19:15:18.249Z,6.40
2018-11-25T19:17:46.662Z,6.41
2018-11-25T19:20:17.140Z,6.38
2018-11-25T19:22:45.313Z,6.41
2018-11-25T19:25:14.694Z,6.43
2018-11-25T19:27:43.565Z,6.41
2018-11-25T19:30:13.738Z,6.41
2018-11-25T19:32:42.512Z,6.38
2018-11-25T19:35:12.994Z,6.38
2018-11-25T19:37:41.917Z,6.36
2018-11-25T19:40:12.336Z,6.41
2018-11-25T19:42:40.560Z,6.43
2018-11-25T19:45:13.463Z,6.40
2018-11-25T19:47:41.646Z,6.39
2018-11-25T19:50:12.532Z,6.41
2018-11-25T19:52:40.668Z,6.40
2018-11-25T19:55:09.096Z,6.39
2018-11-25T19:57:37.222Z,6.42
2018-11-25T20:00:09.962Z,6.38
2018-11-25T20:02:38.151Z,6.39
2018-11-25T20:05:07.102Z,6.38
2018-11-25T20:07:35.319Z,6.41
2018-11-25T20:10:03.574Z,6.47
2018-11-25T20:12:37.194Z,6.45
2018-11-25T20:15:05.623Z,6.46
2018-11-25T20:17:34.897Z,6.46
2018-11-25T20:20:03.669Z,6.43
2018-11-25T20:22:31.884Z,6.46
2018-11-25T20:25:03.259Z,6.47
2018-11-25T20:27:39.275Z,6.47
2018-11-25T20:30:13.610Z,6.46
2018-11-25T20:32:47.274Z,6.58
2018-11-25T20:35:15.376Z,6.52
2018-11-25T20:37:48.761Z,6.48
2018-11-25T20:40:17.011Z,6.51
2018-11-25T20:42:45.338Z,6.48
2018-11-25T20:45:20.021Z,6.44
2018-11-25T20:47:48.219Z,6.46
2018-11-25T20:50:16.522Z,6.46
2018-11-25T20:52:50.084Z,6.48
2018-11-25T20:55:18.221Z,6.49
2018-11-25T20:57:46.359Z,6.47
2018-11-25T21:00:15.826Z,6.49
2018-11-25T21:02:44.083Z,6.44
2018-11-25T21:05:13.047Z,6.46
2018-11-25T21:07:41.243Z,6.50
2018-11-25T21:10:16.620Z,6.47
2018-11-25T21:12:50.134Z,6.48
2018-11-25T21:15:18.313Z,6.50
2018-11-25T21:17:46.446Z,6.45
2018-11-25T21:20:18.864Z,6.43
2018-11-25T21:22:47.156Z,6.48
2018-11-25T21:25:16.401Z,6.46
2018-11-25T21:27:44.606Z,6.50
2018-11-25T21:30:15.123Z,6.51
2018-11-25T21:32:43.595Z,6.54
2018-11-25T21:35:13.681Z,6.55
2018-11-25T21:37:41.842Z,6.43
2018-11-25T21:40:12.227Z,6.46
2018-11-25T21:42:40.399Z,6.39
2018-11-25T21:45:10.006Z,6.42
2018-11-25T21:47:38.163Z,6.37
2018-11-25T21:50:08.584Z,6.40
2018-11-25T21:52:36.774Z,6.39
2018-11-25T21:55:05.209Z,6.32
2018-11-25T21:57:33.343Z,6.32
2018-11-25T22:00:01.483Z,6.34
2018-11-25T22:02:29.679Z,6.34
2018-11-25T22:04:57.891Z,6.33
2018-11-25T22:07:26.023Z,6.30
2018-11-25T22:09:54.555Z,6.33
2018-11-25T22:12:22.727Z,6.30
2018-11-25T22:14:50.871Z,6.33
2018-11-25T22:17:19.974Z,6.31
2018-11-25T22:19:48.324Z,6.29
2018-11-25T22:22:16.499Z,6.25
2018-11-25T22:24:44.676Z,6.25
2018-11-25T22:27:12.838Z,6.27
2018-11-25T22:29:41.112Z,6.25
2018-11-25T22:32:09.299Z,6.23
2018-11-25T22:34:37.473Z,6.24
2018-11-25T22:37:07.938Z,6.18
2018-11-25T22:39:36.067Z,6.17
2018-11-25T22:42:04.245Z,6.17
2018-11-25T22:44:32.534Z,6.15
2018-11-25T22:47:00.684Z,6.18
2018-11-25T22:49:30.337Z,6.13
2018-11-25T22:51:58.461Z,6.14
2018-11-25T22:54:26.649Z,6.12
2018-11-25T22:56:54.827Z,6.17
2018-11-25T22:59:22.959Z,6.13
2018-11-25T23:01:51.223Z,6.22
2018-11-25T23:05:32.435Z,6.21
2018-11-25T23:08:00.626Z,6.19
2018-11-25T23:10:28.790Z,6.14
2018-11-25T23:12:56.943Z,6.18
2018-11-25T23:15:25.146Z,6.17
2018-11-25T23:17:53.362Z,6.17
2018-11-25T23:20:21.515Z,6.15
2018-11-25T23:22:49.828Z,6.14
2018-11-25T23:25:17.982Z,6.09
2018-11-25T23:27:46.114Z,6.06
2018-11-25T23:30:14.288Z,6.06
2018-11-25T23:32:42.579Z,6.06
2018-11-25T23:35:16.441Z,6.02
2018-11-25T23:37:44.584Z,5.99
2018-11-25T23:40:12.711Z,5.97
2018-11-25T23:42:40.983Z,5.96
2018-11-25T23:45:10.702Z,5.93
2018-11-25T23:47:38.865Z,5.91
2018-11-25T23:50:08.678Z,5.88
2018-11-25T23:52:37.068Z,5.89
2018-11-25T23:55:07.048Z,5.90
2018-11-25T23:57:35.809Z,5.89
